createdAt,value
2023-01-03T00:00:27.156Z,100255.00
2023-01-03T00:01:27.134Z,100256.00
2023-01-03T00:02:27.179Z,100252.00
2023-01-03T00:03:27.224Z,100252.00
2023-01-03T00:04:27.222Z,100253.00
2023-01-03T00:05:27.232Z,100249.00
2023-01-03T00:06:27.240Z,100256.00
2023-01-03T00:07:27.268Z,100249.00
2023-01-03T00:08:27.314Z,100254.00
2023-01-03T00:09:27.315Z,100253.00
2023-01-03T00:10:27.377Z,100253.00
2023-01-03T00:11:27.346Z,100248.00
2023-01-03T00:12:31.194Z,100248.00
2023-01-03T00:13:27.396Z,100247.00
2023-01-03T00:14:27.444Z,100250.00
2023-01-03T00:15:27.423Z,100249.00
2023-01-03T00:16:27.492Z,100251.00
2023-01-03T00:17:27.462Z,100250.00
2023-01-03T00:18:27.461Z,100249.00
2023-01-03T00:19:27.506Z,100249.00
2023-01-03T00:20:27.505Z,100249.00
2023-01-03T00:21:27.530Z,100254.00
2023-01-03T00:22:27.570Z,100248.00
2023-01-03T00:23:27.584Z,100249.00
2023-01-03T00:24:27.641Z,100248.00
2023-01-03T00:25:27.606Z,100244.00
2023-01-03T00:26:27.621Z,100243.00
2023-01-03T00:27:27.649Z,100241.00
2023-01-03T00:28:27.623Z,100242.00
2023-01-03T00:29:27.652Z,100246.00
2023-01-03T00:30:27.773Z,100239.00
2023-01-03T00:31:27.730Z,100245.00
2023-01-03T00:32:27.697Z,100240.00
2023-01-03T00:33:27.731Z,100245.00
2023-01-03T00:34:27.751Z,100245.00
2023-01-03T00:35:27.755Z,100246.00
2023-01-03T00:36:27.777Z,100249.00
2023-01-03T00:37:27.803Z,100241.00
2023-01-03T00:38:27.813Z,100242.00
2023-01-03T00:39:27.842Z,100244.00
2023-01-03T00:40:27.901Z,100241.00
2023-01-03T00:41:27.906Z,100239.00
2023-01-03T00:42:27.933Z,100239.00
2023-01-03T00:43:27.942Z,100241.00
2023-01-03T00:44:27.974Z,100238.00
2023-01-03T00:45:30.996Z,100237.00
2023-01-03T00:46:28.067Z,100236.00
2023-01-03T00:47:27.972Z,100239.00
2023-01-03T00:48:27.987Z,100240.00
2023-01-03T00:49:28.032Z,100241.00
2023-01-03T00:50:28.003Z,100241.00
2023-01-03T00:51:28.035Z,100247.00
2023-01-03T00:52:28.047Z,100250.00
2023-01-03T00:53:28.063Z,100255.00
2023-01-03T00:54:28.197Z,100258.00
2023-01-03T00:55:28.091Z,100255.00
2023-01-03T00:56:28.143Z,100257.00
2023-01-03T00:57:28.144Z,100254.00
2023-01-03T00:58:28.150Z,100256.00
2023-01-03T00:59:28.209Z,100258.00
2023-01-03T01:00:28.166Z,100261.00
2023-01-03T01:01:28.328Z,100257.00
2023-01-03T01:02:28.467Z,100261.00
2023-01-03T01:03:28.458Z,100263.00
2023-01-03T01:04:28.275Z,100266.00
2023-01-03T01:05:28.295Z,100268.00
2023-01-03T01:06:28.319Z,100266.00
2023-01-03T01:07:28.353Z,100263.00
2023-01-03T01:08:28.380Z,100268.00
2023-01-03T01:09:28.396Z,100267.00
2023-01-03T01:10:28.416Z,100272.00
2023-01-03T01:11:28.453Z,100276.00
2023-01-03T01:12:28.497Z,100272.00
2023-01-03T01:13:28.454Z,100280.00
2023-01-03T01:14:28.487Z,100279.00
2023-01-03T01:15:28.547Z,100279.00
2023-01-03T01:16:28.627Z,100281.00
2023-01-03T01:17:28.513Z,100280.00
2023-01-03T01:18:28.537Z,100284.00
2023-01-03T01:19:28.592Z,100286.00
2023-01-03T01:20:28.567Z,100283.00
2023-01-03T01:21:28.588Z,100292.00
2023-01-03T01:22:28.562Z,100289.00
2023-01-03T01:23:28.572Z,100294.00
2023-01-03T01:24:28.584Z,100291.00
2023-01-03T01:25:28.617Z,100292.00
2023-01-03T01:26:28.594Z,100291.00
2023-01-03T01:27:28.615Z,100293.00
2023-01-03T01:28:28.660Z,100297.00
2023-01-03T01:29:28.632Z,100297.00
2023-01-03T01:30:28.654Z,100301.00
2023-01-03T01:31:28.776Z,100300.00
2023-01-03T01:32:28.683Z,100303.00
2023-01-03T01:33:28.717Z,100301.00
2023-01-03T01:34:28.737Z,100309.00
2023-01-03T01:35:28.749Z,100308.00
2023-01-03T01:36:28.767Z,100311.00
2023-01-03T01:37:28.792Z,100313.00
2023-01-03T01:38:28.808Z,100309.00
2023-01-03T01:39:28.815Z,100310.00
2023-01-03T01:40:28.859Z,100311.00
2023-01-03T01:41:28.858Z,100313.00
2023-01-03T01:42:31.001Z,100315.00
2023-01-03T01:43:28.842Z,100314.00
2023-01-03T01:44:28.903Z,100316.00
2023-01-03T01:45:28.864Z,100319.00
2023-01-03T01:46:28.978Z,100322.00
2023-01-03T01:47:28.912Z,100320.00
2023-01-03T01:48:28.937Z,100324.00
2023-01-03T01:49:28.959Z,100319.00
2023-01-03T01:50:28.998Z,100327.00
2023-01-03T01:51:29.013Z,100326.00
2023-01-03T01:52:29.024Z,100330.00
2023-01-03T01:53:29.048Z,100331.00
2023-01-03T01:54:29.060Z,100332.00
2023-01-03T01:55:29.067Z,100332.00
2023-01-03T01:56:29.100Z,100336.00
2023-01-03T01:57:29.106Z,100339.00
2023-01-03T01:58:29.131Z,100339.00
2023-01-03T01:59:29.142Z,100343.00
2023-01-03T02:00:29.187Z,100344.00
2023-01-03T02:01:29.313Z,100341.00
2023-01-03T02:02:29.589Z,100344.00
2023-01-03T02:03:29.328Z,100349.00
2023-01-03T02:04:29.197Z,100350.00
2023-01-03T02:05:29.226Z,100351.00
2023-01-03T02:06:29.256Z,100348.00
2023-01-03T02:07:29.291Z,100347.00
2023-01-03T02:08:29.296Z,100349.00
2023-01-03T02:09:29.314Z,100350.00
2023-01-03T02:10:29.318Z,100351.00
2023-01-03T02:11:29.346Z,100353.00
2023-01-03T02:12:29.357Z,100355.00
2023-01-03T02:13:29.385Z,100355.00
2023-01-03T02:14:29.411Z,100353.00
2023-01-03T02:15:29.421Z,100354.00
2023-01-03T02:16:29.601Z,100351.00
2023-01-03T02:17:29.469Z,100350.00
2023-01-03T02:18:29.480Z,100350.00
2023-01-03T02:19:29.485Z,100351.00
2023-01-03T02:20:29.498Z,100346.00
2023-01-03T02:21:29.498Z,100356.00
2023-01-03T02:22:29.509Z,100350.00
2023-01-03T02:23:29.526Z,100354.00
2023-01-03T02:24:29.539Z,100354.00
2023-01-03T02:25:29.554Z,100355.00
2023-01-03T02:26:29.584Z,100354.00
2023-01-03T02:27:29.594Z,100353.00
2023-01-03T02:28:29.621Z,100351.00
2023-01-03T02:29:29.621Z,100353.00
2023-01-03T02:30:29.640Z,100354.00
2023-01-03T02:31:29.694Z,100354.00
2023-01-03T02:32:29.664Z,100355.00
2023-01-03T02:33:29.633Z,100360.00
2023-01-03T02:34:29.631Z,100352.00
2023-01-03T02:35:29.643Z,100355.00
2023-01-03T02:36:29.689Z,100352.00
2023-01-03T02:37:29.663Z,100351.00
2023-01-03T02:38:29.696Z,100348.00
2023-01-03T02:39:29.709Z,100350.00
2023-01-03T02:40:29.724Z,100350.00
2023-01-03T02:41:29.748Z,100351.00
2023-01-03T02:42:29.789Z,100352.00
2023-01-03T02:43:29.827Z,100346.00
2023-01-03T02:44:29.798Z,100346.00
2023-01-03T02:45:29.804Z,100345.00
2023-01-03T02:46:29.880Z,100347.00
2023-01-03T02:47:29.798Z,100344.00
2023-01-03T02:48:29.876Z,100353.00
2023-01-03T02:49:29.843Z,100349.00
2023-01-03T02:50:29.854Z,100349.00
2023-01-03T02:51:29.860Z,100351.00
2023-01-03T02:52:29.839Z,100350.00
2023-01-03T02:53:29.891Z,100354.00
2023-01-03T02:54:29.888Z,100351.00
2023-01-03T02:55:29.894Z,100352.00
2023-01-03T02:56:30.174Z,100354.00
2023-01-03T02:57:29.910Z,100356.00
2023-01-03T02:58:29.925Z,100353.00
2023-01-03T02:59:29.941Z,100350.00
2023-01-03T03:00:29.950Z,100348.00
2023-01-03T03:01:30.127Z,100355.00
2023-01-03T03:02:30.192Z,100356.00
2023-01-03T03:03:30.074Z,100356.00
2023-01-03T03:04:30.010Z,100355.00
2023-01-03T03:05:29.997Z,100356.00
2023-01-03T03:06:30.010Z,100360.00
2023-01-03T03:07:30.019Z,100363.00
2023-01-03T03:08:30.049Z,100366.00
2023-01-03T03:09:30.064Z,100367.00
2023-01-03T03:10:30.115Z,100363.00
2023-01-03T03:11:30.093Z,100364.00
2023-01-03T03:12:30.110Z,100357.00
2023-01-03T03:13:30.115Z,100360.00
2023-01-03T03:14:30.132Z,100357.00
2023-01-03T03:15:30.158Z,100353.00
2023-01-03T03:16:30.228Z,100358.00
2023-01-03T03:17:30.198Z,100354.00
2023-01-03T03:18:30.208Z,100357.00
2023-01-03T03:19:30.233Z,100354.00
2023-01-03T03:20:30.297Z,100353.00
2023-01-03T03:21:30.263Z,100351.00
2023-01-03T03:22:30.254Z,100354.00
2023-01-03T03:23:30.274Z,100361.00
2023-01-03T03:24:30.287Z,100354.00
2023-01-03T03:25:30.319Z,100357.00
2023-01-03T03:26:30.342Z,100359.00
2023-01-03T03:27:30.356Z,100362.00
2023-01-03T03:28:30.368Z,100358.00
2023-01-03T03:29:30.389Z,100362.00
2023-01-03T03:30:30.406Z,100364.00
2023-01-03T03:31:30.789Z,100363.00
2023-01-03T03:32:30.460Z,100356.00
2023-01-03T03:33:30.486Z,100358.00
2023-01-03T03:34:30.498Z,100361.00
2023-01-03T03:35:30.520Z,100357.00
2023-01-03T03:36:30.572Z,100358.00
2023-01-03T03:37:30.534Z,100356.00
2023-01-03T03:38:30.538Z,100360.00
2023-01-03T03:39:30.577Z,100362.00
2023-01-03T03:40:30.604Z,100361.00
2023-01-03T03:41:30.632Z,100363.00
2023-01-03T03:42:30.603Z,100360.00
2023-01-03T03:43:30.636Z,100365.00
2023-01-03T03:44:30.668Z,100362.00
2023-01-03T03:45:30.681Z,100369.00
2023-01-03T03:46:30.721Z,100370.00
2023-01-03T03:47:30.719Z,100369.00
2023-01-03T03:48:30.725Z,100371.00
2023-01-03T03:49:30.758Z,100374.00
2023-01-03T03:50:30.779Z,100371.00
2023-01-03T03:51:30.835Z,100366.00
2023-01-03T03:52:30.830Z,100368.00
2023-01-03T03:53:30.840Z,100371.00
2023-01-03T03:54:30.846Z,100369.00
2023-01-03T03:55:30.874Z,100371.00
2023-01-03T03:56:30.900Z,100370.00
2023-01-03T03:57:30.918Z,100371.00
2023-01-03T03:58:30.925Z,100367.00
2023-01-03T03:59:30.916Z,100367.00
2023-01-03T04:00:30.923Z,100369.00
2023-01-03T04:01:31.046Z,100367.00
2023-01-03T04:02:31.026Z,100366.00
2023-01-03T04:03:30.956Z,100368.00
2023-01-03T04:04:30.948Z,100373.00
2023-01-03T04:05:30.976Z,100369.00
2023-01-03T04:06:31.009Z,100373.00
2023-01-03T04:07:31.034Z,100369.00
2023-01-03T04:08:31.065Z,100370.00
2023-01-03T04:09:31.071Z,100370.00
2023-01-03T04:10:37.249Z,100370.00
2023-01-03T04:11:31.101Z,100374.00
2023-01-03T04:12:31.065Z,100370.00
2023-01-03T04:13:31.091Z,100370.00
2023-01-03T04:14:31.104Z,100372.00
2023-01-03T04:15:31.184Z,100375.00
2023-01-03T04:16:31.193Z,100377.00
2023-01-03T04:17:31.189Z,100373.00
2023-01-03T04:18:31.210Z,100376.00
2023-01-03T04:19:31.234Z,100374.00
2023-01-03T04:20:31.267Z,100378.00
2023-01-03T04:21:31.322Z,100377.00
2023-01-03T04:22:31.283Z,100377.00
2023-01-03T04:23:31.292Z,100377.00
2023-01-03T04:24:31.349Z,100377.00
2023-01-03T04:25:31.309Z,100381.00
2023-01-03T04:26:31.354Z,100377.00
2023-01-03T04:27:31.593Z,100379.00
2023-01-03T04:28:31.374Z,100383.00
2023-01-03T04:29:35.520Z,100379.00
2023-01-03T04:30:31.406Z,100381.00
2023-01-03T04:31:31.486Z,100385.00
2023-01-03T04:32:31.419Z,100387.00
2023-01-03T04:33:31.456Z,100385.00
2023-01-03T04:34:31.469Z,100382.00
2023-01-03T04:35:31.501Z,100384.00
2023-01-03T04:36:32.737Z,100387.00
2023-01-03T04:37:31.541Z,100380.00
2023-01-03T04:38:31.555Z,100379.00
2023-01-03T04:39:31.574Z,100382.00
2023-01-03T04:40:31.615Z,100380.00
2023-01-03T04:41:31.610Z,100375.00
2023-01-03T04:42:31.655Z,100378.00
2023-01-03T04:43:31.677Z,100382.00
2023-01-03T04:44:31.699Z,100378.00
2023-01-03T04:45:31.768Z,100378.00
2023-01-03T04:46:31.734Z,100378.00
2023-01-03T04:47:31.757Z,100376.00
2023-01-03T04:48:31.782Z,100380.00
2023-01-03T04:49:31.791Z,100381.00
2023-01-03T04:50:31.806Z,100382.00
2023-01-03T04:51:31.832Z,100385.00
2023-01-03T04:52:31.852Z,100385.00
2023-01-03T04:53:31.874Z,100388.00
2023-01-03T04:54:31.885Z,100383.00
2023-01-03T04:55:31.902Z,100383.00
2023-01-03T04:56:31.957Z,100380.00
2023-01-03T04:57:31.940Z,100385.00
2023-01-03T04:58:31.961Z,100383.00
2023-01-03T04:59:31.997Z,100387.00
2023-01-03T05:00:32.026Z,100386.00
2023-01-03T05:01:32.212Z,100390.00
2023-01-03T05:02:32.083Z,100393.00
2023-01-03T05:03:32.027Z,100392.00
2023-01-03T05:04:32.120Z,100389.00
2023-01-03T05:05:32.031Z,100394.00
2023-01-03T05:06:32.007Z,100397.00
2023-01-03T05:07:32.031Z,100397.00
2023-01-03T05:08:32.065Z,100395.00
2023-01-03T05:09:32.078Z,100402.00
2023-01-03T05:10:32.094Z,100399.00
2023-01-03T05:11:32.115Z,100400.00
2023-01-03T05:12:32.245Z,100399.00
2023-01-03T05:13:32.152Z,100402.00
2023-01-03T05:14:32.227Z,100404.00
2023-01-03T05:15:32.197Z,100404.00
2023-01-03T05:16:32.276Z,100401.00
2023-01-03T05:17:32.233Z,100405.00
2023-01-03T05:18:32.236Z,100401.00
2023-01-03T05:19:32.266Z,100402.00
2023-01-03T05:20:32.278Z,100402.00
2023-01-03T05:21:32.277Z,100407.00
2023-01-03T05:22:32.286Z,100406.00
2023-01-03T05:23:32.307Z,100406.00
2023-01-03T05:24:32.351Z,100409.00
2023-01-03T05:25:32.371Z,100406.00
2023-01-03T05:26:32.399Z,100404.00
2023-01-03T05:27:32.403Z,100408.00
2023-01-03T05:28:32.533Z,100410.00
2023-01-03T05:29:32.412Z,100402.00
2023-01-03T05:30:32.381Z,100400.00
2023-01-03T05:31:32.438Z,100401.00
2023-01-03T05:32:32.415Z,100407.00
2023-01-03T05:33:32.419Z,100404.00
2023-01-03T05:34:32.457Z,100407.00
2023-01-03T05:35:32.465Z,100406.00
2023-01-03T05:36:32.476Z,100403.00
2023-01-03T05:37:32.504Z,100403.00
2023-01-03T05:38:32.512Z,100404.00
2023-01-03T05:39:32.540Z,100405.00
2023-01-03T05:40:37.682Z,100405.00
2023-01-03T05:41:32.523Z,100405.00
2023-01-03T05:42:32.546Z,100402.00
2023-01-03T05:43:32.569Z,100401.00
2023-01-03T05:44:32.643Z,100408.00
2023-01-03T05:45:32.601Z,100411.00
2023-01-03T05:46:32.696Z,100411.00
2023-01-03T05:47:32.614Z,100418.00
2023-01-03T05:48:32.639Z,100417.00
2023-01-03T05:49:32.680Z,100417.00
2023-01-03T05:50:32.659Z,100421.00
2023-01-03T05:51:32.698Z,100421.00
2023-01-03T05:52:32.672Z,100422.00
2023-01-03T05:53:32.690Z,100423.00
2023-01-03T05:54:32.703Z,100422.00
2023-01-03T05:55:32.730Z,100421.00
2023-01-03T05:56:32.755Z,100420.00
2023-01-03T05:57:35.656Z,100417.00
2023-01-03T05:58:32.802Z,100419.00
2023-01-03T05:59:32.822Z,100419.00
2023-01-03T06:01:58.955Z,100421.00
2023-01-03T06:02:58.836Z,100417.00
2023-01-03T06:03:58.834Z,100424.00
2023-01-03T06:04:58.794Z,100423.00
2023-01-03T06:05:58.801Z,100421.00
2023-01-03T06:06:58.822Z,100422.00
2023-01-03T06:07:58.849Z,100423.00
2023-01-03T06:08:58.855Z,100420.00
2023-01-03T06:09:58.895Z,100425.00
2023-01-03T06:10:58.905Z,100422.00
2023-01-03T06:11:58.920Z,100420.00
2023-01-03T06:12:58.931Z,100419.00
2023-01-03T06:13:58.962Z,100421.00
2023-01-03T06:14:58.981Z,100423.00
2023-01-03T06:15:59.002Z,100428.00
2023-01-03T06:16:59.106Z,100433.00
2023-01-03T06:17:59.173Z,100432.00
2023-01-03T06:18:59.054Z,100435.00
2023-01-03T06:19:59.048Z,100436.00
2023-01-03T06:20:59.027Z,100439.00
2023-01-03T06:21:59.065Z,100439.00
2023-01-03T06:22:59.052Z,100435.00
2023-01-03T06:23:59.062Z,100439.00
2023-01-03T06:24:59.115Z,100442.00
2023-01-03T06:25:59.078Z,100449.00
2023-01-03T06:26:59.100Z,100447.00
2023-01-03T06:27:59.109Z,100451.00
2023-01-03T06:28:59.117Z,100449.00
2023-01-03T06:29:59.145Z,100453.00
2023-01-03T06:30:59.260Z,100453.00
2023-01-03T06:32:03.572Z,100454.00
2023-01-03T06:32:59.180Z,100454.00
2023-01-03T06:33:59.237Z,100456.00
2023-01-03T06:34:59.213Z,100455.00
2023-01-03T06:35:59.343Z,100453.00
2023-01-03T06:36:59.220Z,100458.00
2023-01-03T06:37:59.237Z,100457.00
2023-01-03T06:38:59.266Z,100457.00
2023-01-03T06:39:59.291Z,100460.00
2023-01-03T06:40:59.302Z,100460.00
2023-01-03T06:41:59.322Z,100460.00
2023-01-03T06:42:59.376Z,100461.00
2023-01-03T06:43:59.355Z,100461.00
2023-01-03T06:44:59.369Z,100456.00
2023-01-03T06:45:59.539Z,100453.00
2023-01-03T06:46:59.385Z,100456.00
2023-01-03T06:47:59.406Z,100458.00
2023-01-03T06:48:59.436Z,100457.00
2023-01-03T06:49:59.469Z,100458.00
2023-01-03T06:50:59.457Z,100452.00
2023-01-03T06:51:59.461Z,100455.00
2023-01-03T06:52:59.484Z,100459.00
2023-01-03T06:53:59.537Z,100460.00
2023-01-03T06:54:59.501Z,100464.00
2023-01-03T06:55:59.528Z,100466.00
2023-01-03T06:56:59.558Z,100463.00
2023-01-03T06:57:59.565Z,100464.00
2023-01-03T06:58:59.576Z,100465.00
2023-01-03T06:59:59.545Z,100467.00
2023-01-03T07:00:59.550Z,100469.00
2023-01-03T07:01:59.788Z,100470.00
2023-01-03T07:03:02.020Z,100469.00
2023-01-03T07:03:59.732Z,100478.00
2023-01-03T07:04:59.713Z,100479.00
2023-01-03T07:05:59.712Z,100470.00
2023-01-03T07:06:59.692Z,100483.00
2023-01-03T07:07:59.699Z,100487.00
2023-01-03T07:08:59.713Z,100486.00
2023-01-03T07:09:59.712Z,100489.00
2023-01-03T07:10:59.736Z,100490.00
2023-01-03T07:11:59.740Z,100485.00
2023-01-03T07:12:59.752Z,100499.00
2023-01-03T07:13:59.796Z,100492.00
2023-01-03T07:14:59.766Z,100500.00
2023-01-03T07:15:59.833Z,100503.00
2023-01-03T07:16:59.804Z,100497.00
2023-01-03T07:17:59.807Z,100502.00
2023-01-03T07:18:59.851Z,100499.00
2023-01-03T07:19:59.869Z,100495.00
2023-01-03T07:20:59.903Z,100501.00
2023-01-03T07:21:59.937Z,100495.00
2023-01-03T07:22:59.903Z,100498.00
2023-01-03T07:23:59.940Z,100496.00
2023-01-03T07:24:59.937Z,100494.00
2023-01-03T07:25:59.951Z,100497.00
2023-01-03T07:27:00.013Z,100498.00
2023-01-03T07:28:05.735Z,100504.00
2023-01-03T07:29:00.000Z,100505.00
2023-01-03T07:29:59.977Z,100505.00
2023-01-03T07:30:59.999Z,100505.00
2023-01-03T07:31:59.972Z,100503.00
2023-01-03T07:32:59.980Z,100507.00
2023-01-03T07:34:00.055Z,100511.00
2023-01-03T07:35:00.046Z,100510.00
2023-01-03T07:36:02.485Z,100512.00
2023-01-03T07:37:00.028Z,100513.00
2023-01-03T07:38:00.094Z,100520.00
2023-01-03T07:39:00.037Z,100517.00
2023-01-03T07:40:00.066Z,100519.00
2023-01-03T07:41:00.053Z,100516.00
2023-01-03T07:42:00.118Z,100518.00
2023-01-03T07:43:00.124Z,100519.00
2023-01-03T07:44:00.161Z,100520.00
2023-01-03T07:45:00.130Z,100517.00
2023-01-03T07:46:00.192Z,100520.00
2023-01-03T07:47:00.132Z,100518.00
2023-01-03T07:48:00.139Z,100518.00
2023-01-03T07:49:00.176Z,100521.00
2023-01-03T07:50:00.231Z,100516.00
2023-01-03T07:51:00.181Z,100523.00
2023-01-03T07:52:00.204Z,100523.00
2023-01-03T07:53:00.173Z,100523.00
2023-01-03T07:54:00.204Z,100521.00
2023-01-03T07:55:00.235Z,100526.00
2023-01-03T07:56:00.220Z,100528.00
2023-01-03T07:57:00.256Z,100509.00
2023-01-03T07:58:00.236Z,100537.00
2023-01-03T07:59:00.298Z,100535.00
2023-01-03T08:00:00.326Z,100540.00
2023-01-03T08:01:00.304Z,100539.00
2023-01-03T08:02:00.478Z,100539.00
2023-01-03T08:03:00.388Z,100537.00
2023-01-03T08:04:00.347Z,100541.00
2023-01-03T08:05:00.455Z,100542.00
2023-01-03T08:06:00.370Z,100545.00
2023-01-03T08:07:00.436Z,100545.00
2023-01-03T08:08:00.420Z,100542.00
2023-01-03T08:09:05.836Z,100545.00
2023-01-03T08:10:00.471Z,100542.00
2023-01-03T08:11:00.444Z,100543.00
2023-01-03T08:12:00.488Z,100538.00
2023-01-03T08:13:00.518Z,100539.00
2023-01-03T08:14:00.498Z,100537.00
2023-01-03T08:15:00.486Z,100542.00
2023-01-03T08:16:00.569Z,100539.00
2023-01-03T08:17:00.523Z,100544.00
2023-01-03T08:18:00.554Z,100544.00
2023-01-03T08:19:00.543Z,100534.00
2023-01-03T08:20:00.556Z,100541.00
2023-01-03T08:21:00.601Z,100546.00
2023-01-03T08:22:00.629Z,100542.00
2023-01-03T08:23:00.619Z,100544.00
2023-01-03T08:24:00.652Z,100544.00
2023-01-03T08:25:00.661Z,100543.00
2023-01-03T08:26:00.663Z,100546.00
2023-01-03T08:27:00.621Z,100547.00
2023-01-03T08:28:00.677Z,100543.00
2023-01-03T08:29:00.712Z,100541.00
2023-01-03T08:30:00.685Z,100542.00
2023-01-03T08:31:00.733Z,100540.00
2023-01-03T08:32:00.774Z,100541.00
2023-01-03T08:33:00.694Z,100548.00
2023-01-03T08:34:00.714Z,100550.00
2023-01-03T08:35:00.745Z,100550.00
2023-01-03T08:36:00.767Z,100553.00
2023-01-03T08:37:00.795Z,100556.00
2023-01-03T08:38:00.821Z,100560.00
2023-01-03T08:39:00.817Z,100562.00
2023-01-03T08:40:00.860Z,100568.00
2023-01-03T08:41:00.842Z,100570.00
2023-01-03T08:42:00.949Z,100573.00
2023-01-03T08:43:00.876Z,100574.00
2023-01-03T08:44:00.863Z,100572.00
2023-01-03T08:45:00.883Z,100572.00
2023-01-03T08:46:00.919Z,100566.00
2023-01-03T08:47:01.036Z,100569.00
2023-01-03T08:48:00.925Z,100566.00
2023-01-03T08:49:00.971Z,100573.00
2023-01-03T08:50:00.994Z,100577.00
2023-01-03T08:51:01.005Z,100574.00
2023-01-03T08:52:01.064Z,100575.00
2023-01-03T08:53:01.041Z,100575.00
2023-01-03T08:54:01.017Z,100581.00
2023-01-03T08:55:01.023Z,100575.00
2023-01-03T08:56:01.063Z,100576.00
2023-01-03T08:57:01.068Z,100579.00
2023-01-03T08:58:01.116Z,100574.00
2023-01-03T08:59:01.060Z,100576.00
2023-01-03T09:00:01.107Z,100573.00
2023-01-03T09:01:01.127Z,100576.00
2023-01-03T09:02:01.399Z,100574.00
2023-01-03T09:03:01.414Z,100573.00
2023-01-03T09:04:01.211Z,100578.00
2023-01-03T09:05:01.194Z,100574.00
2023-01-03T09:06:01.952Z,100578.00
2023-01-03T09:07:01.168Z,100583.00
2023-01-03T09:08:01.232Z,100583.00
2023-01-03T09:09:01.198Z,100584.00
2023-01-03T09:10:01.220Z,100589.00
2023-01-03T09:11:01.269Z,100592.00
2023-01-03T09:12:01.243Z,100586.00
2023-01-03T09:13:01.241Z,100588.00
2023-01-03T09:14:01.315Z,100590.00
2023-01-03T09:15:01.264Z,100590.00
2023-01-03T09:16:01.408Z,100593.00
2023-01-03T09:17:01.360Z,100593.00
2023-01-03T09:18:01.286Z,100591.00
2023-01-03T09:19:01.295Z,100594.00
2023-01-03T09:20:01.366Z,100598.00
2023-01-03T09:21:01.381Z,100602.00
2023-01-03T09:22:01.344Z,100605.00
2023-01-03T09:23:01.391Z,100607.00
2023-01-03T09:24:01.417Z,100612.00
2023-01-03T09:25:01.402Z,100610.00
2023-01-03T09:26:01.420Z,100614.00
2023-01-03T09:27:01.403Z,100615.00
2023-01-03T09:28:01.397Z,100609.00
2023-01-03T09:29:01.403Z,100615.00
2023-01-03T09:30:01.439Z,100613.00
2023-01-03T09:31:01.485Z,100615.00
2023-01-03T09:32:01.519Z,100619.00
2023-01-03T09:33:01.473Z,100607.00
2023-01-03T09:34:01.494Z,100607.00
2023-01-03T09:35:01.519Z,100613.00
2023-01-03T09:36:01.513Z,100614.00
2023-01-03T09:37:01.493Z,100612.00
2023-01-03T09:38:01.519Z,100610.00
2023-01-03T09:39:01.491Z,100611.00
2023-01-03T09:40:01.516Z,100607.00
2023-01-03T09:41:01.548Z,100615.00
2023-01-03T09:42:01.541Z,100611.00
2023-01-03T09:43:01.528Z,100608.00
2023-01-03T09:44:01.557Z,100604.00
2023-01-03T09:45:01.610Z,100604.00
2023-01-03T09:46:01.616Z,100605.00
2023-01-03T09:47:01.629Z,100606.00
2023-01-03T09:48:01.565Z,100604.00
2023-01-03T09:49:01.593Z,100603.00
2023-01-03T09:51:24.017Z,100598.00
2023-01-03T09:52:01.598Z,100598.00
2023-01-03T09:53:01.585Z,100595.00
2023-01-03T09:54:01.580Z,100595.00
2023-01-03T09:55:01.616Z,100596.00
2023-01-03T09:56:01.605Z,100596.00
2023-01-03T09:57:01.623Z,100593.00
2023-01-03T09:58:01.606Z,100592.00
2023-01-03T09:59:01.587Z,100589.00
2023-01-03T10:00:01.652Z,100588.00
2023-01-03T10:01:01.785Z,100586.00
2023-01-03T10:02:02.093Z,100596.00
2023-01-03T10:03:01.817Z,100589.00
2023-01-03T10:04:01.688Z,100591.00
2023-01-03T10:05:01.692Z,100590.00
2023-01-03T10:06:01.698Z,100590.00
2023-01-03T10:07:01.666Z,100592.00
2023-01-03T10:08:01.657Z,100593.00
2023-01-03T10:09:01.690Z,100592.00
2023-01-03T10:10:01.703Z,100593.00
2023-01-03T10:11:01.672Z,100589.00
2023-01-03T10:12:01.749Z,100588.00
2023-01-03T10:13:01.718Z,100587.00
2023-01-03T10:14:01.746Z,100588.00
2023-01-03T10:15:01.799Z,100583.00
2023-01-03T10:16:01.889Z,100587.00
2023-01-03T10:17:01.910Z,100580.00
2023-01-03T10:18:01.949Z,100588.00
2023-01-03T10:19:01.802Z,100586.00
2023-01-03T10:20:01.835Z,100590.00
2023-01-03T10:21:01.830Z,100583.00
2023-01-03T10:22:01.814Z,100583.00
2023-01-03T10:23:01.816Z,100585.00
2023-01-03T10:24:01.802Z,100584.00
2023-01-03T10:25:01.840Z,100588.00
2023-01-03T10:26:01.812Z,100584.00
2023-01-03T10:27:01.901Z,100582.00
2023-01-03T10:28:01.836Z,100585.00
2023-01-03T10:29:01.875Z,100585.00
2023-01-03T10:30:01.882Z,100583.00
2023-01-03T10:31:07.760Z,100585.00
2023-01-03T10:32:02.025Z,100586.00
2023-01-03T10:33:01.891Z,100585.00
2023-01-03T10:34:01.898Z,100586.00
2023-01-03T10:35:01.897Z,100584.00
2023-01-03T10:36:01.911Z,100583.00
2023-01-03T10:37:01.904Z,100585.00
2023-01-03T10:38:01.904Z,100583.00
2023-01-03T10:39:01.873Z,100574.00
2023-01-03T10:40:01.943Z,100579.00
2023-01-03T10:41:01.975Z,100580.00
2023-01-03T10:42:01.960Z,100578.00
2023-01-03T10:43:01.946Z,100578.00
2023-01-03T10:44:01.934Z,100577.00
2023-01-03T10:45:01.995Z,100576.00
2023-01-03T10:46:02.095Z,100577.00
2023-01-03T10:47:02.001Z,100574.00
2023-01-03T10:48:01.989Z,100573.00
2023-01-03T10:49:27.315Z,100572.00
2023-01-03T10:50:02.037Z,100571.00
2023-01-03T10:51:02.100Z,100573.00
2023-01-03T10:52:02.141Z,100575.00
2023-01-03T10:53:02.074Z,100574.00
2023-01-03T10:54:02.103Z,100569.00
2023-01-03T10:55:02.105Z,100567.00
2023-01-03T10:56:02.108Z,100560.00
2023-01-03T10:57:02.089Z,100568.00
2023-01-03T10:58:02.188Z,100570.00
2023-01-03T10:59:02.123Z,100571.00
2023-01-03T11:00:02.108Z,100574.00
2023-01-03T11:01:02.163Z,100576.00
2023-01-03T11:02:02.497Z,100576.00
2023-01-03T11:03:02.293Z,100572.00
2023-01-03T11:04:02.337Z,100569.00
2023-01-03T11:05:02.262Z,100566.00
2023-01-03T11:06:02.897Z,100566.00
2023-01-03T11:07:02.242Z,100571.00
2023-01-03T11:08:02.219Z,100568.00
2023-01-03T11:09:02.283Z,100568.00
2023-01-03T11:10:02.318Z,100563.00
2023-01-03T11:11:02.347Z,100564.00
2023-01-03T11:12:02.300Z,100566.00
2023-01-03T11:13:02.275Z,100569.00
2023-01-03T11:14:02.301Z,100566.00
2023-01-03T11:15:02.319Z,100565.00
2023-01-03T11:16:02.378Z,100563.00
2023-01-03T11:17:02.475Z,100566.00
2023-01-03T11:18:02.424Z,100564.00
2023-01-03T11:19:02.397Z,100566.00
2023-01-03T11:20:02.399Z,100563.00
2023-01-03T11:21:02.400Z,100560.00
2023-01-03T11:22:02.416Z,100558.00
2023-01-03T11:23:02.391Z,100558.00
2023-01-03T11:24:02.409Z,100549.00
2023-01-03T11:25:02.386Z,100550.00
2023-01-03T11:26:02.382Z,100554.00
2023-01-03T11:27:02.360Z,100550.00